Terminal Aerodrome Forecast
Issued by NWS

Home | Current Version | Previous Version | Text Only | Print | Product List | Glossary On
Versions: 1 2 3 4 5 6 7 8 9 10 11 12 13 14 15 16 17 18 19 20 21 22 23 24
540
FTUS43 KLOT 260535
TAFMDW
TAF
KMDW 260535Z 2606/2712 30003KT P6SM SKC
     FM261300 22004KT P6SM FEW250
     FM261700 18006KT P6SM FEW050 BKN250
     FM270100 22008KT P6SM FEW050 BKN250
     FM270700 35016G23KT P6SM BKN020 OVC050=

USA.gov is the U.S. government's official web portal to all federal, state and local government web resources and services.